sensor_id;sensor_type;location;lat;lon;timestamp;pressure;altitude;pressure_sealevel;temperature;humidity
70217;BME280;65567;55.684;37.570;2023-03-21T00:00:58;98778.91;;;8.44;41.42
70217;BME280;65567;55.684;37.570;2023-03-21T00:03:25;98782.34;;;8.44;41.17
70217;BME280;65567;55.684;37.570;2023-03-21T00:05:51;98778.22;;;8.40;41.08
70217;BME280;65567;55.684;37.570;2023-03-21T00:08:22;98763.38;;;8.41;40.92
70217;BME280;65567;55.684;37.570;2023-03-21T00:10:56;98778.63;;;8.50;40.98
70217;BME280;65567;55.684;37.570;2023-03-21T00:13:23;98774.25;;;8.51;41.00
70217;BME280;65567;55.684;37.570;2023-03-21T00:15:51;98764.81;;;8.48;40.79
70217;BME280;65567;55.684;37.570;2023-03-21T00:18:22;98759.25;;;8.37;41.20
70217;BME280;65567;55.684;37.570;2023-03-21T00:20:57;98763.56;;;8.38;41.36
70217;BME280;65567;55.684;37.570;2023-03-21T00:23:28;98753.41;;;8.32;41.43
70217;BME280;65567;55.684;37.570;2023-03-21T00:25:54;98758.63;;;8.32;41.16
70217;BME280;65567;55.684;37.570;2023-03-21T00:28:20;98755.59;;;8.22;41.95
70217;BME280;65567;55.684;37.570;2023-03-21T00:30:46;98752.16;;;8.21;42.21
70217;BME280;65567;55.684;37.570;2023-03-21T00:33:12;98755.19;;;8.31;42.17
70217;BME280;65567;55.684;37.570;2023-03-21T00:35:40;98751.25;;;8.40;41.63
70217;BME280;65567;55.684;37.570;2023-03-21T00:38:13;98750.97;;;8.46;41.48
70217;BME280;65567;55.684;37.570;2023-03-21T00:40:39;98752.81;;;8.44;41.26
70217;BME280;65567;55.684;37.570;2023-03-21T00:43:05;98752.03;;;8.42;41.33
70217;BME280;65567;55.684;37.570;2023-03-21T00:45:31;98757.72;;;8.33;41.85
70217;BME280;65567;55.684;37.570;2023-03-21T00:47:57;98748.34;;;8.29;41.73
70217;BME280;65567;55.684;37.570;2023-03-21T00:50:24;98746.97;;;8.39;41.83
70217;BME280;65567;55.684;37.570;2023-03-21T00:52:50;98744.19;;;8.42;41.76
70217;BME280;65567;55.684;37.570;2023-03-21T00:55:17;98750.16;;;8.46;41.31
70217;BME280;65567;55.684;37.570;2023-03-21T00:57:44;98735.75;;;8.37;41.64
70217;BME280;65567;55.684;37.570;2023-03-21T01:00:12;98737.84;;;8.48;41.23
70217;BME280;65567;55.684;37.570;2023-03-21T01:02:39;98732.06;;;8.41;41.35
70217;BME280;65567;55.684;37.570;2023-03-21T01:05:43;98720.94;;;8.37;41.79
70217;BME280;65567;55.684;37.570;2023-03-21T01:08:39;98726.00;;;8.40;41.52
70217;BME280;65567;55.684;37.570;2023-03-21T01:11:12;98734.69;;;8.41;41.43
70217;BME280;65567;55.684;37.570;2023-03-21T01:13:39;98723.50;;;8.39;41.59
70217;BME280;65567;55.684;37.570;2023-03-21T01:16:07;98715.56;;;8.40;41.25
70217;BME280;65567;55.684;37.570;2023-03-21T01:18:34;98717.88;;;8.29;41.58
70217;BME280;65567;55.684;37.570;2023-03-21T01:21:01;98712.72;;;8.27;41.71
70217;BME280;65567;55.684;37.570;2023-03-21T01:23:30;98715.03;;;8.34;41.74
70217;BME280;65567;55.684;37.570;2023-03-21T01:25:56;98708.81;;;8.36;41.58
70217;BME280;65567;55.684;37.570;2023-03-21T01:28:25;98703.22;;;8.26;42.14
70217;BME280;65567;55.684;37.570;2023-03-21T01:30:51;98709.88;;;8.32;41.63
70217;BME280;65567;55.684;37.570;2023-03-21T01:33:18;98705.59;;;8.31;41.78
70217;BME280;65567;55.684;37.570;2023-03-21T01:35:45;98696.91;;;8.31;41.67
70217;BME280;65567;55.684;37.570;2023-03-21T01:38:11;98708.66;;;8.39;41.33
70217;BME280;65567;55.684;37.570;2023-03-21T01:40:38;98710.56;;;8.36;41.21
70217;BME280;65567;55.684;37.570;2023-03-21T01:43:18;98702.91;;;8.33;41.54
70217;BME280;65567;55.684;37.570;2023-03-21T01:48:38;98706.59;;;8.29;41.97
70217;BME280;65567;55.684;37.570;2023-03-21T01:51:05;98707.97;;;8.36;41.36
70217;BME280;65567;55.684;37.570;2023-03-21T01:53:34;98703.22;;;8.26;41.57
70217;BME280;65567;55.684;37.570;2023-03-21T01:56:05;98701.50;;;8.25;41.55
70217;BME280;65567;55.684;37.570;2023-03-21T01:58:34;98700.44;;;8.30;41.65
70217;BME280;65567;55.684;37.570;2023-03-21T02:01:01;98697.78;;;8.31;41.28
70217;BME280;65567;55.684;37.570;2023-03-21T02:03:28;98694.91;;;8.36;41.49
70217;BME280;65567;55.684;37.570;2023-03-21T02:06:08;98695.53;;;8.23;41.74
70217;BME280;65567;55.684;37.570;2023-03-21T02:08:36;98687.47;;;8.28;41.84
70217;BME280;65567;55.684;37.570;2023-03-21T02:11:02;98681.03;;;8.35;41.26
70217;BME280;65567;55.684;37.570;2023-03-21T02:13:28;98677.91;;;8.29;41.34
70217;BME280;65567;55.684;37.570;2023-03-21T02:16:01;98676.50;;;8.39;41.36
70217;BME280;65567;55.684;37.570;2023-03-21T02:18:45;98678.19;;;8.40;41.03
70217;BME280;65567;55.684;37.570;2023-03-21T02:21:27;98672.22;;;8.38;40.91
70217;BME280;65567;55.684;37.570;2023-03-21T02:36:03;98669.66;;;8.19;41.40
70217;BME280;65567;55.684;37.570;2023-03-21T02:39:00;98673.72;;;8.24;40.69
70217;BME280;65567;55.684;37.570;2023-03-21T02:42:01;98666.31;;;8.17;41.02
70217;BME280;65567;55.684;37.570;2023-03-21T02:44:59;98677.41;;;8.20;41.25
70217;BME280;65567;55.684;37.570;2023-03-21T02:47:30;98678.72;;;8.29;40.85
70217;BME280;65567;55.684;37.570;2023-03-21T02:52:33;98655.94;;;8.33;40.69
70217;BME280;65567;55.684;37.570;2023-03-21T02:55:01;98654.41;;;8.29;40.38
70217;BME280;65567;55.684;37.570;2023-03-21T02:57:29;98659.25;;;8.19;40.60
70217;BME280;65567;55.684;37.570;2023-03-21T02:59:56;98660.84;;;8.21;40.89
70217;BME280;65567;55.684;37.570;2023-03-21T03:02:26;98650.09;;;8.27;41.00
70217;BME280;65567;55.684;37.570;2023-03-21T03:04:52;98649.81;;;8.34;40.89
70217;BME280;65567;55.684;37.570;2023-03-21T03:12:48;98639.06;;;8.22;40.82
70217;BME280;65567;55.684;37.570;2023-03-21T03:15:40;98637.38;;;8.21;41.17
70217;BME280;65567;55.684;37.570;2023-03-21T03:18:31;98637.53;;;8.18;41.11
70217;BME280;65567;55.684;37.570;2023-03-21T03:21:12;98633.84;;;8.22;40.92
70217;BME280;65567;55.684;37.570;2023-03-21T03:24:10;98638.19;;;8.22;40.96
70217;BME280;65567;55.684;37.570;2023-03-21T03:26:47;98635.41;;;8.09;41.40
70217;BME280;65567;55.684;37.570;2023-03-21T03:29:16;98632.78;;;8.09;41.21
70217;BME280;65567;55.684;37.570;2023-03-21T03:31:53;98639.28;;;8.18;41.13
70217;BME280;65567;55.684;37.570;2023-03-21T03:34:24;98636.06;;;8.13;41.11
70217;BME280;65567;55.684;37.570;2023-03-21T03:36:54;98637.84;;;8.12;41.29
70217;BME280;65567;55.684;37.570;2023-03-21T03:39:26;98634.44;;;8.10;41.25
70217;BME280;65567;55.684;37.570;2023-03-21T03:42:02;98632.63;;;8.12;41.23
70217;BME280;65567;55.684;37.570;2023-03-21T03:44:30;98635.16;;;8.14;41.10
70217;BME280;65567;55.684;37.570;2023-03-21T03:47:02;98629.00;;;8.15;41.11
70217;BME280;65567;55.684;37.570;2023-03-21T03:49:33;98628.00;;;8.17;41.06
70217;BME280;65567;55.684;37.570;2023-03-21T03:52:11;98629.78;;;8.17;40.96
70217;BME280;65567;55.684;37.570;2023-03-21T03:54:42;98625.56;;;8.14;41.11
70217;BME280;65567;55.684;37.570;2023-03-21T03:57:09;98622.50;;;8.06;41.00
70217;BME280;65567;55.684;37.570;2023-03-21T03:59:39;98633.38;;;7.79;41.39
70217;BME280;65567;55.684;37.570;2023-03-21T04:02:06;98627.44;;;7.58;41.58
70217;BME280;65567;55.684;37.570;2023-03-21T04:04:33;98631.34;;;7.49;41.83
70217;BME280;65567;55.684;37.570;2023-03-21T04:06:59;98633.16;;;7.47;41.84
70217;BME280;65567;55.684;37.570;2023-03-21T04:09:29;98619.59;;;7.40;42.18
70217;BME280;65567;55.684;37.570;2023-03-21T04:11:56;98624.09;;;7.37;42.13
70217;BME280;65567;55.684;37.570;2023-03-21T04:14:22;98621.78;;;7.31;42.35
70217;BME280;65567;55.684;37.570;2023-03-21T04:16:48;98619.63;;;7.21;42.03
70217;BME280;65567;55.684;37.570;2023-03-21T04:19:15;98625.72;;;7.20;42.56
70217;BME280;65567;55.684;37.570;2023-03-21T04:21:41;98623.28;;;7.17;42.53
70217;BME280;65567;55.684;37.570;2023-03-21T04:24:07;98627.56;;;7.18;42.38
70217;BME280;65567;55.684;37.570;2023-03-21T04:26:33;98618.91;;;7.18;42.53
70217;BME280;65567;55.684;37.570;2023-03-21T04:29:01;98619.63;;;7.21;42.42
70217;BME280;65567;55.684;37.570;2023-03-21T04:31:28;98622.09;;;7.24;42.65
70217;BME280;65567;55.684;37.570;2023-03-21T04:34:03;98618.78;;;7.21;42.62
70217;BME280;65567;55.684;37.570;2023-03-21T04:36:35;98623.56;;;7.11;42.89
70217;BME280;65567;55.684;37.570;2023-03-21T04:39:12;98619.69;;;7.01;43.17
70217;BME280;65567;55.684;37.570;2023-03-21T04:41:39;98623.00;;;7.04;43.07
70217;BME280;65567;55.684;37.570;2023-03-21T04:44:05;98620.47;;;7.03;43.31
70217;BME280;65567;55.684;37.570;2023-03-21T04:46:32;98628.78;;;7.11;43.03
70217;BME280;65567;55.684;37.570;2023-03-21T04:48:58;98628.78;;;7.11;43.23
70217;BME280;65567;55.684;37.570;2023-03-21T04:51:24;98622.81;;;7.09;43.11
70217;BME280;65567;55.684;37.570;2023-03-21T04:53:49;98626.66;;;7.19;43.34
70217;BME280;65567;55.684;37.570;2023-03-21T04:56:17;98621.31;;;7.22;43.24
70217;BME280;65567;55.684;37.570;2023-03-21T04:58:43;98630.81;;;7.23;43.17
70217;BME280;65567;55.684;37.570;2023-03-21T05:01:09;98621.03;;;7.28;43.03
70217;BME280;65567;55.684;37.570;2023-03-21T05:03:39;98622.28;;;7.39;43.14
70217;BME280;65567;55.684;37.570;2023-03-21T05:06:08;98619.44;;;7.43;42.89
70217;BME280;65567;55.684;37.570;2023-03-21T05:08:35;98618.59;;;7.43;42.93
70217;BME280;65567;55.684;37.570;2023-03-21T05:11:01;98617.75;;;7.42;42.80
70217;BME280;65567;55.684;37.570;2023-03-21T05:13:27;98614.09;;;7.47;42.80
70217;BME280;65567;55.684;37.570;2023-03-21T05:15:53;98616.13;;;7.40;42.91
70217;BME280;65567;55.684;37.570;2023-03-21T05:18:19;98619.88;;;7.34;43.25
70217;BME280;65567;55.684;37.570;2023-03-21T05:20:51;98612.25;;;7.49;42.87
70217;BME280;65567;55.684;37.570;2023-03-21T05:23:19;98610.97;;;7.57;42.47
70217;BME280;65567;55.684;37.570;2023-03-21T05:25:45;98610.97;;;7.57;42.64
70217;BME280;65567;55.684;37.570;2023-03-21T05:28:10;98615.38;;;7.55;42.58
70217;BME280;65567;55.684;37.570;2023-03-21T05:30:36;98612.75;;;7.74;42.42
70217;BME280;65567;55.684;37.570;2023-03-21T05:33:02;98612.53;;;7.97;41.96
70217;BME280;65567;55.684;37.570;2023-03-21T05:35:28;98613.28;;;8.16;41.67
70217;BME280;65567;55.684;37.570;2023-03-21T05:37:54;98615.63;;;8.38;41.20
70217;BME280;65567;55.684;37.570;2023-03-21T05:40:20;98607.84;;;8.54;40.75
70217;BME280;65567;55.684;37.570;2023-03-21T05:42:47;98607.22;;;8.67;40.70
70217;BME280;65567;55.684;37.570;2023-03-21T05:45:13;98609.84;;;8.67;40.62
70217;BME280;65567;55.684;37.570;2023-03-21T05:47:40;98610.63;;;8.69;41.16
70217;BME280;65567;55.684;37.570;2023-03-21T05:50:07;98614.66;;;8.74;41.81
70217;BME280;65567;55.684;37.570;2023-03-21T05:52:33;98612.16;;;8.89;41.76
70217;BME280;65567;55.684;37.570;2023-03-21T05:55:00;98607.59;;;8.92;42.28
70217;BME280;65567;55.684;37.570;2023-03-21T05:57:26;98612.00;;;9.08;41.25
70217;BME280;65567;55.684;37.570;2023-03-21T05:59:53;98609.97;;;9.13;41.10
70217;BME280;65567;55.684;37.570;2023-03-21T06:02:19;98606.00;;;9.22;41.05
70217;BME280;65567;55.684;37.570;2023-03-21T06:04:45;98609.13;;;9.29;40.76
70217;BME280;65567;55.684;37.570;2023-03-21T06:07:11;98600.78;;;9.38;40.73
70217;BME280;65567;55.684;37.570;2023-03-21T06:09:36;98607.19;;;9.48;40.30
70217;BME280;65567;55.684;37.570;2023-03-21T06:12:02;98602.44;;;9.55;40.49
70217;BME280;65567;55.684;37.570;2023-03-21T06:14:28;98605.53;;;9.62;40.37
70217;BME280;65567;55.684;37.570;2023-03-21T06:16:54;98597.06;;;9.72;39.83
70217;BME280;65567;55.684;37.570;2023-03-21T06:19:20;98594.22;;;9.77;39.85
70217;BME280;65567;55.684;37.570;2023-03-21T06:21:47;98598.41;;;9.80;39.91
70217;BME280;65567;55.684;37.570;2023-03-21T06:24:13;98598.91;;;9.86;40.04
70217;BME280;65567;55.684;37.570;2023-03-21T06:26:39;98587.75;;;9.83;39.96
70217;BME280;65567;55.684;37.570;2023-03-21T06:29:06;98589.19;;;9.88;39.87
70217;BME280;65567;55.684;37.570;2023-03-21T06:31:32;98592.19;;;9.97;40.05
70217;BME280;65567;55.684;37.570;2023-03-21T06:33:58;98585.84;;;10.01;40.30
70217;BME280;65567;55.684;37.570;2023-03-21T06:36:24;98586.91;;;10.13;40.05
70217;BME280;65567;55.684;37.570;2023-03-21T06:38:50;98583.44;;;10.12;40.35
70217;BME280;65567;55.684;37.570;2023-03-21T06:41:16;98582.53;;;10.13;40.39
70217;BME280;65567;55.684;37.570;2023-03-21T06:43:42;98585.72;;;10.18;40.73
70217;BME280;65567;55.684;37.570;2023-03-21T06:46:09;98580.47;;;10.18;40.71
70217;BME280;65567;55.684;37.570;2023-03-21T06:48:35;98578.31;;;10.25;40.58
70217;BME280;65567;55.684;37.570;2023-03-21T06:51:02;98563.69;;;10.37;40.45
70217;BME280;65567;55.684;37.570;2023-03-21T06:53:29;98576.00;;;10.64;40.29
70217;BME280;65567;55.684;37.570;2023-03-21T06:55:55;98567.47;;;10.89;39.88
70217;BME280;65567;55.684;37.570;2023-03-21T06:58:23;98570.50;;;11.10;39.45
70217;BME280;65567;55.684;37.570;2023-03-21T07:00:50;98569.44;;;11.27;39.30
70217;BME280;65567;55.684;37.570;2023-03-21T07:03:15;98563.84;;;11.46;38.97
70217;BME280;65567;55.684;37.570;2023-03-21T07:05:42;98557.13;;;11.82;38.42
70217;BME280;65567;55.684;37.570;2023-03-21T07:08:08;98556.97;;;12.24;37.98
70217;BME280;65567;55.684;37.570;2023-03-21T07:10:40;98553.06;;;12.55;37.76
70217;BME280;65567;55.684;37.570;2023-03-21T07:13:07;98549.63;;;12.79;37.14
70217;BME280;65567;55.684;37.570;2023-03-21T07:15:33;98552.44;;;13.02;37.03
70217;BME280;65567;55.684;37.570;2023-03-21T07:18:06;98554.84;;;13.29;36.42
70217;BME280;65567;55.684;37.570;2023-03-21T07:20:33;98555.59;;;13.55;35.89
70217;BME280;65567;55.684;37.570;2023-03-21T07:23:01;98561.47;;;13.59;35.67
70217;BME280;65567;55.684;37.570;2023-03-21T07:25:27;98558.47;;;13.64;35.77
70217;BME280;65567;55.684;37.570;2023-03-21T07:27:53;98564.66;;;13.51;35.69
70217;BME280;65567;55.684;37.570;2023-03-21T07:30:19;98560.28;;;13.39;36.34
70217;BME280;65567;55.684;37.570;2023-03-21T07:32:45;98551.88;;;13.34;36.81
70217;BME280;65567;55.684;37.570;2023-03-21T07:35:15;98555.91;;;13.27;37.28
70217;BME280;65567;55.684;37.570;2023-03-21T07:37:41;98556.13;;;13.23;37.29
70217;BME280;65567;55.684;37.570;2023-03-21T07:40:09;98549.75;;;13.15;37.36
70217;BME280;65567;55.684;37.570;2023-03-21T07:42:40;98542.41;;;13.07;37.95
70217;BME280;65567;55.684;37.570;2023-03-21T07:45:07;98548.50;;;13.08;38.07
70217;BME280;65567;55.684;37.570;2023-03-21T07:47:34;98545.63;;;13.11;38.22
70217;BME280;65567;55.684;37.570;2023-03-21T07:50:01;98550.19;;;13.09;38.18
70217;BME280;65567;55.684;37.570;2023-03-21T07:52:29;98545.81;;;12.96;38.55
70217;BME280;65567;55.684;37.570;2023-03-21T07:54:55;98539.31;;;12.89;38.60
70217;BME280;65567;55.684;37.570;2023-03-21T07:57:21;98544.19;;;12.82;38.94
70217;BME280;65567;55.684;37.570;2023-03-21T07:59:47;98544.09;;;12.71;39.32
70217;BME280;65567;55.684;37.570;2023-03-21T08:02:33;98532.16;;;12.54;39.54
70217;BME280;65567;55.684;37.570;2023-03-21T08:04:58;98542.94;;;12.62;39.83
70217;BME280;65567;55.684;37.570;2023-03-21T08:07:24;98548.28;;;12.73;39.82
70217;BME280;65567;55.684;37.570;2023-03-21T08:09:52;98545.31;;;12.78;39.69
70217;BME280;65567;55.684;37.570;2023-03-21T08:12:18;98543.63;;;12.90;39.69
70217;BME280;65567;55.684;37.570;2023-03-21T08:14:43;98535.63;;;12.92;39.82
70217;BME280;65567;55.684;37.570;2023-03-21T08:17:09;98536.66;;;13.02;39.97
70217;BME280;65567;55.684;37.570;2023-03-21T08:19:38;98529.78;;;13.12;39.85
70217;BME280;65567;55.684;37.570;2023-03-21T08:22:04;98533.19;;;13.26;39.48
70217;BME280;65567;55.684;37.570;2023-03-21T08:24:32;98531.84;;;13.44;38.99
70217;BME280;65567;55.684;37.570;2023-03-21T08:27:02;98527.59;;;13.54;39.32
70217;BME280;65567;55.684;37.570;2023-03-21T08:29:28;98530.72;;;13.60;39.09
70217;BME280;65567;55.684;37.570;2023-03-21T08:31:53;98534.66;;;13.65;38.90
70217;BME280;65567;55.684;37.570;2023-03-21T08:34:20;98529.53;;;13.64;38.83
70217;BME280;65567;55.684;37.570;2023-03-21T08:36:47;98526.81;;;13.77;38.85
70217;BME280;65567;55.684;37.570;2023-03-21T08:39:13;98527.88;;;13.74;38.71
70217;BME280;65567;55.684;37.570;2023-03-21T08:41:39;98529.81;;;13.72;38.54
70217;BME280;65567;55.684;37.570;2023-03-21T08:44:05;98524.38;;;13.62;39.03
70217;BME280;65567;55.684;37.570;2023-03-21T08:46:31;98533.78;;;13.53;38.77
70217;BME280;65567;55.684;37.570;2023-03-21T08:48:58;98528.28;;;13.45;39.05
70217;BME280;65567;55.684;37.570;2023-03-21T08:51:24;98520.97;;;13.25;39.91
70217;BME280;65567;55.684;37.570;2023-03-21T08:53:50;98532.59;;;13.09;39.83
70217;BME280;65567;55.684;37.570;2023-03-21T08:56:16;98524.88;;;12.95;40.37
70217;BME280;65567;55.684;37.570;2023-03-21T08:58:43;98520.38;;;12.97;40.13
70217;BME280;65567;55.684;37.570;2023-03-21T09:01:09;98520.69;;;12.92;40.52
70217;BME280;65567;55.684;37.570;2023-03-21T09:03:41;98521.16;;;12.73;41.22
70217;BME280;65567;55.684;37.570;2023-03-21T09:06:08;98516.56;;;12.64;41.78
70217;BME280;65567;55.684;37.570;2023-03-21T09:08:37;98517.63;;;12.48;42.28
70217;BME280;65567;55.684;37.570;2023-03-21T09:11:03;98512.88;;;12.66;41.90
70217;BME280;65567;55.684;37.570;2023-03-21T09:13:29;98516.09;;;12.83;42.00
70217;BME280;65567;55.684;37.570;2023-03-21T09:15:55;98531.59;;;12.99;41.83
70217;BME280;65567;55.684;37.570;2023-03-21T09:18:25;98526.09;;;13.39;41.22
70217;BME280;65567;55.684;37.570;2023-03-21T09:21:08;98530.28;;;13.66;41.40
70217;BME280;65567;55.684;37.570;2023-03-21T09:23:38;98525.41;;;13.95;41.11
70217;BME280;65567;55.684;37.570;2023-03-21T09:26:06;98518.03;;;14.23;41.06
70217;BME280;65567;55.684;37.570;2023-03-21T09:28:32;98509.16;;;14.35;40.63
70217;BME280;65567;55.684;37.570;2023-03-21T09:30:59;98516.00;;;14.49;40.19
70217;BME280;65567;55.684;37.570;2023-03-21T09:33:27;98521.19;;;14.74;39.66
70217;BME280;65567;55.684;37.570;2023-03-21T09:35:54;98511.34;;;14.76;39.48
70217;BME280;65567;55.684;37.570;2023-03-21T09:38:20;98517.34;;;14.78;39.53
70217;BME280;65567;55.684;37.570;2023-03-21T09:41:02;98510.69;;;14.95;39.04
70217;BME280;65567;55.684;37.570;2023-03-21T09:43:50;98513.69;;;15.34;38.89
70217;BME280;65567;55.684;37.570;2023-03-21T09:46:30;98505.16;;;15.63;38.40
70217;BME280;65567;55.684;37.570;2023-03-21T09:49:05;98500.34;;;15.68;37.66
70217;BME280;65567;55.684;37.570;2023-03-21T09:51:40;98498.66;;;16.09;36.97
70217;BME280;65567;55.684;37.570;2023-03-21T09:54:40;98485.09;;;16.24;36.61
70217;BME280;65567;55.684;37.570;2023-03-21T09:57:23;98488.19;;;16.29;36.24
70217;BME280;65567;55.684;37.570;2023-03-21T09:59:53;98480.16;;;16.40;35.91
70217;BME280;65567;55.684;37.570;2023-03-21T10:02:35;98478.16;;;16.73;35.51
70217;BME280;65567;55.684;37.570;2023-03-21T10:05:19;98471.09;;;16.83;34.96
70217;BME280;65567;55.684;37.570;2023-03-21T10:07:52;98471.69;;;16.97;34.80
70217;BME280;65567;55.684;37.570;2023-03-21T10:10:27;98465.03;;;17.12;34.44
70217;BME280;65567;55.684;37.570;2023-03-21T10:12:55;98460.72;;;17.21;34.30
70217;BME280;65567;55.684;37.570;2023-03-21T10:15:24;98468.09;;;17.17;33.83
70217;BME280;65567;55.684;37.570;2023-03-21T10:18:12;98462.66;;;17.29;33.87
70217;BME280;65567;55.684;37.570;2023-03-21T10:20:42;98464.19;;;17.31;33.81
70217;BME280;65567;55.684;37.570;2023-03-21T10:23:13;98451.38;;;17.27;33.41
70217;BME280;65567;55.684;37.570;2023-03-21T10:25:44;98459.72;;;16.93;33.77
70217;BME280;65567;55.684;37.570;2023-03-21T10:28:17;98453.53;;;16.82;33.95
70217;BME280;65567;55.684;37.570;2023-03-21T10:30:49;98456.94;;;16.94;33.53
70217;BME280;65567;55.684;37.570;2023-03-21T10:33:22;98449.63;;;16.57;34.23
70217;BME280;65567;55.684;37.570;2023-03-21T10:35:52;98445.94;;;16.39;34.56
70217;BME280;65567;55.684;37.570;2023-03-21T10:38:23;98446.78;;;16.39;34.42
70217;BME280;65567;55.684;37.570;2023-03-21T10:40:49;98443.59;;;16.45;34.32
70217;BME280;65567;55.684;37.570;2023-03-21T10:45:52;98445.03;;;16.18;34.83
70217;BME280;65567;55.684;37.570;2023-03-21T10:48:18;98435.78;;;16.03;34.92
70217;BME280;65567;55.684;37.570;2023-03-21T10:50:47;98442.38;;;15.88;35.37
70217;BME280;65567;55.684;37.570;2023-03-21T10:53:22;98436.31;;;15.97;34.95
70217;BME280;65567;55.684;37.570;2023-03-21T10:55:55;98437.16;;;15.97;35.35
70217;BME280;65567;55.684;37.570;2023-03-21T10:58:26;98437.19;;;16.07;35.06
70217;BME280;65567;55.684;37.570;2023-03-21T11:01:03;98438.81;;;16.29;34.45
70217;BME280;65567;55.684;37.570;2023-03-21T11:03:42;98442.06;;;16.43;34.61
70217;BME280;65567;55.684;37.570;2023-03-21T11:06:22;98440.78;;;16.37;34.55
70217;BME280;65567;55.684;37.570;2023-03-21T11:08:59;98440.56;;;16.69;33.76
70217;BME280;65567;55.684;37.570;2023-03-21T11:11:50;98436.31;;;16.98;33.17
70217;BME280;65567;55.684;37.570;2023-03-21T11:17:28;98434.56;;;16.58;33.60
70217;BME280;65567;55.684;37.570;2023-03-21T11:20:00;98427.25;;;16.30;33.61
70217;BME280;65567;55.684;37.570;2023-03-21T11:22:36;98426.66;;;16.17;33.58
70217;BME280;65567;55.684;37.570;2023-03-21T11:25:06;98428.22;;;15.89;34.12
70217;BME280;65567;55.684;37.570;2023-03-21T11:27:33;98423.97;;;15.76;33.85
70217;BME280;65567;55.684;37.570;2023-03-21T11:30:01;98425.97;;;15.63;34.04
70217;BME280;65567;55.684;37.570;2023-03-21T11:32:37;98426.66;;;15.23;34.34
70217;BME280;65567;55.684;37.570;2023-03-21T11:37:38;98418.56;;;15.14;34.14
70217;BME280;65567;55.684;37.570;2023-03-21T11:42:50;98419.19;;;14.63;34.16
70217;BME280;65567;55.684;37.570;2023-03-21T11:45:19;98414.22;;;14.37;34.75
70217;BME280;65567;55.684;37.570;2023-03-21T11:47:47;98415.03;;;14.49;33.95
70217;BME280;65567;55.684;37.570;2023-03-21T11:50:38;98406.28;;;14.48;34.89
70217;BME280;65567;55.684;37.570;2023-03-21T11:56:03;98397.16;;;14.52;34.31
70217;BME280;65567;55.684;37.570;2023-03-21T12:06:50;98391.75;;;14.10;34.89
70217;BME280;65567;55.684;37.570;2023-03-21T12:12:18;98388.28;;;13.98;35.21
70217;BME280;65567;55.684;37.570;2023-03-21T12:14:58;98388.16;;;13.88;35.45
70217;BME280;65567;55.684;37.570;2023-03-21T12:23:07;98380.84;;;13.58;34.44
70217;BME280;65567;55.684;37.570;2023-03-21T12:39:28;98373.31;;;13.76;35.02
70217;BME280;65567;55.684;37.570;2023-03-21T12:44:44;98357.03;;;13.37;33.91
70217;BME280;65567;55.684;37.570;2023-03-21T12:47:26;98351.63;;;13.50;33.60
70217;BME280;65567;55.684;37.570;2023-03-21T12:50:00;98359.91;;;13.68;33.32
70217;BME280;65567;55.684;37.570;2023-03-21T12:52:31;98354.88;;;13.65;33.38
70217;BME280;65567;55.684;37.570;2023-03-21T12:55:15;98357.78;;;13.62;33.88
70217;BME280;65567;55.684;37.570;2023-03-21T13:03:25;98349.00;;;13.38;34.01
70217;BME280;65567;55.684;37.570;2023-03-21T13:06:14;98355.84;;;13.41;34.12
70217;BME280;65567;55.684;37.570;2023-03-21T13:08:47;98346.25;;;13.40;33.71
70217;BME280;65567;55.684;37.570;2023-03-21T13:11:21;98353.41;;;13.38;34.18
70217;BME280;65567;55.684;37.570;2023-03-21T13:16:34;98347.81;;;13.77;38.49
70217;BME280;65567;55.684;37.570;2023-03-21T13:21:42;98341.34;;;14.47;39.56
70217;BME280;65567;55.684;37.570;2023-03-21T13:32:32;98345.47;;;14.40;34.92
70217;BME280;65567;55.684;37.570;2023-03-21T13:37:33;98336.44;;;13.99;33.60
70217;BME280;65567;55.684;37.570;2023-03-21T13:40:06;98336.69;;;13.96;32.76
70217;BME280;65567;55.684;37.570;2023-03-21T13:42:51;98339.09;;;13.65;32.08
70217;BME280;65567;55.684;37.570;2023-03-21T13:47:56;98344.50;;;13.75;32.21
70217;BME280;65567;55.684;37.570;2023-03-21T13:53:17;98336.69;;;13.73;32.00
70217;BME280;65567;55.684;37.570;2023-03-21T13:55:46;98338.75;;;13.58;32.30
70217;BME280;65567;55.684;37.570;2023-03-21T14:04:18;98329.88;;;13.48;33.59
70217;BME280;65567;55.684;37.570;2023-03-21T14:09:39;98325.66;;;13.34;32.24
70217;BME280;65567;55.684;37.570;2023-03-21T14:12:28;98330.31;;;13.30;32.22
70217;BME280;65567;55.684;37.570;2023-03-21T14:17:30;98325.53;;;13.24;31.80
70217;BME280;65567;55.684;37.570;2023-03-21T14:20:14;98313.69;;;13.07;32.65
70217;BME280;65567;55.684;37.570;2023-03-21T14:22:41;98316.47;;;12.93;32.76
70217;BME280;65567;55.684;37.570;2023-03-21T14:25:12;98324.28;;;12.94;32.13
70217;BME280;65567;55.684;37.570;2023-03-21T14:27:42;98326.13;;;12.81;32.54
70217;BME280;65567;55.684;37.570;2023-03-21T14:30:28;98334.63;;;12.84;32.30
70217;BME280;65567;55.684;37.570;2023-03-21T14:32:58;98325.19;;;12.82;32.01
70217;BME280;65567;55.684;37.570;2023-03-21T14:35:30;98323.25;;;12.72;32.39
70217;BME280;65567;55.684;37.570;2023-03-21T14:38:03;98318.38;;;12.79;32.03
70217;BME280;65567;55.684;37.570;2023-03-21T14:40:30;98321.44;;;12.73;32.08
70217;BME280;65567;55.684;37.570;2023-03-21T14:42:56;98322.56;;;12.82;31.75
70217;BME280;65567;55.684;37.570;2023-03-21T14:45:27;98317.47;;;13.03;31.14
70217;BME280;65567;55.684;37.570;2023-03-21T14:48:21;98326.09;;;13.05;31.77
70217;BME280;65567;55.684;37.570;2023-03-21T14:51:00;98319.84;;;12.95;31.57
70217;BME280;65567;55.684;37.570;2023-03-21T14:53:31;98318.66;;;12.99;31.27
70217;BME280;65567;55.684;37.570;2023-03-21T14:56:06;98327.25;;;12.89;31.52
70217;BME280;65567;55.684;37.570;2023-03-21T14:58:37;98317.66;;;12.77;31.42
70217;BME280;65567;55.684;37.570;2023-03-21T15:01:06;98312.41;;;12.77;31.02